Portada
METAR-TAF:

METAR-TAF

Aeropuertos :

Aeropuerto de Heringsdorf

Heringsdorf, Alemania

latitud: 53-53N, longitud: 014-09E, altitud: 28 m

Observación

El informe se hizo hace 1 hora y 27 minutos, a las 14:50 UTC
Viento 11 kt del sureste
Temperatura 7°C
Humedad 76%
Presión 1016 hPa
Visibilidad 10 km o más
sin nubes por debajo de 1500 m y sin presencia de cumulonimbus.

METAR: EDAH 171450Z 13011KT CAVOK 07/03 Q1016

Hora: 17:17 (16:17 UTC)

Pronóstico

El informe se hizo hace 2 horas y 17 minutos, a las 14:00 UTC
Pronóstico válido del 17 a las 15 UTC al 17 a las 24 UTC
Viento 10 kt del sureste
Visibilidad 10 km o más
sin nubes por debajo de 1500 m y sin presencia de cumulonimbus.
Evolucionando progresivamente
del 17 a las 21 UTC al 17 a las 24 UTC
Viento 7 kt del sur-suroeste
Cielo nuboso a una altura de 1000 ft

TAF: EDAH 171400Z 1715/1724 14010KT CAVOK BECMG 1721/1724 20007KT BKN010

Observaciones y pronósticos meteorológicos de más de 4000 aeropuertos (mensajes METAR y TAF).

Los puntos amarillos y rojos representan las estaciones disponibles.

Ponga el ratón en el punto deseado para ver el nombre de la estación.

Haga clic para ver las observaciones y los pronósticos meteorológicos.

Para cambiar el mapa : haga clic en los botones verdes con una cruz de color negro para hacer un zoom, en el botón verde con un guión para alejar o en las flechas verdes para mapas adyacentes.


METAR-TAF: